createdAt,value
2019-03-05T00:00:49.930Z,100350.09
2019-03-05T00:03:19.455Z,100339.42
2019-03-05T00:05:48.827Z,100329.14
2019-03-05T00:08:18.209Z,100327.45
2019-03-05T00:10:47.525Z,100349.43
2019-03-05T00:13:16.896Z,100353.38
2019-03-05T00:15:47.314Z,100358.66
2019-03-05T00:18:16.595Z,100359.66
2019-03-05T00:20:45.997Z,100360.17
2019-03-05T00:23:17.543Z,100364.16
2019-03-05T00:25:46.879Z,100368.59
2019-03-05T00:28:46.098Z,100366.59
2019-03-05T00:31:24.014Z,100366.23
2019-03-05T00:34:18.558Z,100363.41
2019-03-05T00:37:11.403Z,100360.02
2019-03-05T00:40:20.554Z,100361.89
2019-03-05T00:43:19.654Z,100363.22
2019-03-05T00:46:42.258Z,100358.16
2019-03-05T00:49:48.484Z,100359.96
2019-03-05T00:52:29.998Z,100350.37
2019-03-05T00:55:13.855Z,100351.89
2019-03-05T00:58:10.089Z,100351.92
2019-03-05T01:00:56.592Z,100340.81
2019-03-05T01:03:56.062Z,100343.91
2019-03-05T01:06:25.775Z,100351.25
2019-03-05T01:08:56.516Z,100354.34
2019-03-05T01:11:26.296Z,100363.84
2019-03-05T01:13:55.750Z,100384.14
2019-03-05T01:16:31.131Z,100394.30
2019-03-05T01:19:00.443Z,100385.86
2019-03-05T01:21:29.768Z,100423.20
2019-03-05T01:23:59.067Z,100419.44
2019-03-05T01:26:28.415Z,100404.47
2019-03-05T01:28:57.747Z,100397.64
2019-03-05T01:31:40.362Z,100399.81
2019-03-05T01:34:27.346Z,100399.30
2019-03-05T01:36:59.157Z,100408.69
2019-03-05T01:39:39.219Z,100411.67
2019-03-05T01:42:08.551Z,100407.29
2019-03-05T01:44:37.877Z,100408.03
2019-03-05T01:47:07.369Z,100420.05
2019-03-05T01:49:36.660Z,100413.98
2019-03-05T01:52:05.983Z,100418.64
2019-03-05T01:54:35.340Z,100406.94
2019-03-05T01:57:04.691Z,100404.24
2019-03-05T01:59:33.997Z,100387.84
2019-03-05T02:02:03.306Z,100396.37
2019-03-05T02:04:32.591Z,100392.42
2019-03-05T02:07:01.943Z,100394.91
2019-03-05T02:09:31.259Z,100398.34
2019-03-05T02:12:00.615Z,100391.88
2019-03-05T02:14:29.936Z,100394.46
2019-03-05T02:16:59.257Z,100391.50
2019-03-05T02:19:56.641Z,100385.41
2019-03-05T02:22:34.770Z,100383.23
2019-03-05T02:25:20.062Z,100372.44
2019-03-05T02:28:22.580Z,100377.03
2019-03-05T02:31:03.973Z,100394.14
2019-03-05T02:34:11.054Z,100396.17
2019-03-05T02:37:08.565Z,100382.05
2019-03-05T02:40:04.308Z,100390.30
2019-03-05T02:42:58.986Z,100387.45
2019-03-05T02:45:50.653Z,100385.03
2019-03-05T02:49:10.158Z,100399.30
2019-03-05T02:52:12.783Z,100397.59
2019-03-05T02:55:47.456Z,100404.98
2019-03-05T02:58:14.978Z,100405.36
2019-03-05T03:01:12.529Z,100401.62
2019-03-05T03:03:44.914Z,100393.86
2019-03-05T03:06:23.622Z,100394.30
2019-03-05T03:09:14.805Z,100400.33
2019-03-05T03:11:44.107Z,100418.36
2019-03-05T03:14:13.741Z,100401.77
2019-03-05T03:16:43.106Z,100387.34
2019-03-05T03:19:12.435Z,100375.95
2019-03-05T03:21:41.788Z,100368.16
2019-03-05T03:24:11.192Z,100362.14
2019-03-05T03:26:40.500Z,100350.54
2019-03-05T03:29:09.822Z,100354.05
2019-03-05T03:31:39.151Z,100358.70
2019-03-05T03:34:08.463Z,100350.91
2019-03-05T03:36:37.778Z,100347.84
2019-03-05T03:39:07.241Z,100360.33
2019-03-05T03:41:36.579Z,100357.73
2019-03-05T03:44:05.910Z,100353.86
2019-03-05T03:46:35.218Z,100365.06
2019-03-05T03:49:04.525Z,100362.14
2019-03-05T03:51:33.836Z,100364.77
2019-03-05T03:54:03.136Z,100369.13
2019-03-05T03:56:32.460Z,100361.84
2019-03-05T03:59:01.788Z,100366.23
2019-03-05T04:01:31.134Z,100367.61
2019-03-05T04:04:00.471Z,100369.37
2019-03-05T04:06:29.769Z,100373.77
2019-03-05T04:08:59.080Z,100375.98
2019-03-05T04:11:28.428Z,100379.91
2019-03-05T04:13:59.675Z,100376.91
2019-03-05T04:16:28.830Z,100382.56
2019-03-05T04:19:00.055Z,100387.73
2019-03-05T04:21:29.347Z,100383.00
2019-03-05T04:23:58.677Z,100386.03
2019-03-05T04:26:27.945Z,100389.51
2019-03-05T04:28:57.251Z,100398.52
2019-03-05T04:31:26.580Z,100397.27
2019-03-05T04:33:55.887Z,100413.12
2019-03-05T04:36:25.228Z,100417.84
2019-03-05T04:38:54.535Z,100420.32
2019-03-05T04:41:23.809Z,100423.69
2019-03-05T04:43:53.122Z,100419.77
2019-03-05T04:46:35.675Z,100417.92
2019-03-05T04:49:26.607Z,100418.63
2019-03-05T04:52:08.503Z,100420.67
2019-03-05T04:54:37.827Z,100424.03
2019-03-05T04:57:07.160Z,100424.55
2019-03-05T04:59:36.564Z,100430.34
2019-03-05T05:02:05.904Z,100429.20
2019-03-05T05:04:35.236Z,100428.93
2019-03-05T05:07:04.582Z,100428.62
2019-03-05T05:09:33.884Z,100430.09
2019-03-05T05:12:03.197Z,100419.42
2019-03-05T05:14:32.512Z,100414.80
2019-03-05T05:17:01.873Z,100420.05
2019-03-05T05:19:31.190Z,100421.06
2019-03-05T05:22:00.489Z,100422.46
2019-03-05T05:24:29.813Z,100422.97
2019-03-05T05:26:59.186Z,100418.31
2019-03-05T05:29:28.593Z,100424.81
2019-03-05T05:31:58.487Z,100422.67
2019-03-05T05:34:27.981Z,100433.86
2019-03-05T05:36:57.312Z,100430.49
2019-03-05T05:40:04.732Z,100436.52
2019-03-05T05:42:33.287Z,100434.81
2019-03-05T05:45:02.594Z,100443.86
2019-03-05T05:47:31.957Z,100436.17
2019-03-05T05:50:01.291Z,100447.80
2019-03-05T05:52:30.632Z,100447.39
2019-03-05T05:54:59.994Z,100436.20
2019-03-05T05:57:29.310Z,100437.94
2019-03-05T05:59:58.621Z,100442.30
2019-03-05T06:02:27.896Z,100445.35
2019-03-05T06:04:57.222Z,100439.33
2019-03-05T06:07:26.503Z,100441.92
2019-03-05T06:09:55.824Z,100435.70
2019-03-05T06:12:25.155Z,100434.16
2019-03-05T06:14:54.466Z,100444.60
2019-03-05T06:17:23.830Z,100443.13
2019-03-05T06:19:53.151Z,100439.05
2019-03-05T06:22:22.521Z,100437.64
2019-03-05T06:24:51.945Z,100444.11
2019-03-05T06:27:21.291Z,100452.75
2019-03-05T06:29:50.609Z,100451.08
2019-03-05T06:32:19.897Z,100448.09
2019-03-05T06:34:49.251Z,100455.07
2019-03-05T06:37:18.565Z,100462.83
2019-03-05T06:39:47.887Z,100466.70
2019-03-05T06:42:17.216Z,100468.95
2019-03-05T06:44:46.567Z,100470.28
2019-03-05T06:47:15.918Z,100468.20
2019-03-05T06:49:45.236Z,100461.84
2019-03-05T06:52:14.547Z,100463.61
2019-03-05T06:54:43.848Z,100463.27
2019-03-05T06:57:13.156Z,100456.00
2019-03-05T06:59:42.611Z,100450.89
2019-03-05T07:02:11.913Z,100449.61
2019-03-05T07:04:42.891Z,100468.59
2019-03-05T07:07:13.399Z,100467.77
2019-03-05T07:10:24.789Z,100468.21
2019-03-05T07:13:02.848Z,100471.58
2019-03-05T07:16:24.237Z,100477.97
2019-03-05T07:19:16.962Z,100470.63
2019-03-05T07:22:18.291Z,100469.67
2019-03-05T07:24:51.377Z,100456.74
2019-03-05T07:27:37.902Z,100470.08
2019-03-05T07:30:14.259Z,100472.19
2019-03-05T07:32:43.639Z,100474.27
2019-03-05T07:35:15.163Z,100464.66
2019-03-05T07:37:44.591Z,100464.05
2019-03-05T07:40:13.901Z,100464.73
2019-03-05T07:42:43.239Z,100462.81
2019-03-05T07:45:12.668Z,100462.61
2019-03-05T07:47:42.002Z,100474.09
2019-03-05T07:50:11.599Z,100488.59
2019-03-05T07:52:40.932Z,100476.44
2019-03-05T07:55:14.060Z,100468.98
2019-03-05T07:57:43.659Z,100470.87
2019-03-05T08:00:15.604Z,100468.17
2019-03-05T08:02:45.068Z,100468.06
2019-03-05T08:05:15.005Z,100476.16
2019-03-05T08:07:44.667Z,100481.23
2019-03-05T08:10:31.794Z,100482.75
2019-03-05T08:13:46.882Z,100480.90
2019-03-05T08:16:28.765Z,100476.50
2019-03-05T08:18:59.906Z,100476.91
2019-03-05T08:21:29.353Z,100496.43
2019-03-05T08:23:58.911Z,100493.77
2019-03-05T08:26:30.825Z,100497.17
2019-03-05T08:29:02.821Z,100487.19
2019-03-05T08:31:31.712Z,100493.10
2019-03-05T08:34:01.370Z,100498.61
2019-03-05T08:36:30.691Z,100504.13
2019-03-05T08:39:00.038Z,100505.75
2019-03-05T08:41:29.492Z,100512.11
2019-03-05T08:43:58.782Z,100511.59
2019-03-05T08:46:28.102Z,100522.69
2019-03-05T08:48:57.427Z,100516.22
2019-03-05T08:51:26.959Z,100529.42
2019-03-05T08:53:56.248Z,100530.23
2019-03-05T08:56:25.775Z,100521.84
2019-03-05T08:58:55.136Z,100527.61
2019-03-05T09:01:24.453Z,100520.45
2019-03-05T09:03:53.833Z,100521.97
2019-03-05T09:06:23.274Z,100523.08
2019-03-05T09:08:52.628Z,100513.44
2019-03-05T09:11:22.511Z,100513.25
2019-03-05T09:13:51.823Z,100518.27
2019-03-05T09:16:21.138Z,100514.64
2019-03-05T09:18:50.437Z,100515.77
2019-03-05T09:21:19.780Z,100516.42
2019-03-05T09:23:49.205Z,100523.03
2019-03-05T09:26:18.535Z,100527.58
2019-03-05T09:28:48.013Z,100524.63
2019-03-05T09:31:17.292Z,100525.20
2019-03-05T09:33:46.662Z,100527.09
2019-03-05T09:36:15.990Z,100530.78
2019-03-05T09:38:45.278Z,100526.32
2019-03-05T09:41:14.642Z,100523.60
2019-03-05T09:43:43.972Z,100520.48
2019-03-05T09:46:13.282Z,100525.55
2019-03-05T09:48:42.885Z,100522.70
2019-03-05T09:51:12.215Z,100516.09
2019-03-05T09:53:41.683Z,100521.52
2019-03-05T09:56:16.103Z,100516.65
2019-03-05T09:58:48.298Z,100517.81
2019-03-05T10:01:22.022Z,100512.05
2019-03-05T10:03:52.058Z,100517.03
2019-03-05T10:06:41.040Z,100514.39
2019-03-05T10:09:18.131Z,100524.64
2019-03-05T10:11:56.281Z,100514.89
2019-03-05T10:14:21.001Z,100518.56
2019-03-05T10:16:52.964Z,100510.03
2019-03-05T10:19:22.385Z,100518.77
2019-03-05T10:21:52.152Z,100509.36
2019-03-05T10:24:21.505Z,100502.52
2019-03-05T10:26:50.984Z,100506.05
2019-03-05T10:29:22.218Z,100507.53
2019-03-05T10:31:52.451Z,100508.92
2019-03-05T10:34:22.753Z,100508.19
2019-03-05T10:36:56.124Z,100505.31
2019-03-05T10:39:30.978Z,100510.28
2019-03-05T10:41:59.056Z,100510.01
2019-03-05T10:44:32.128Z,100512.32
2019-03-05T10:47:01.721Z,100515.09
2019-03-05T10:49:31.292Z,100518.31
2019-03-05T10:52:01.348Z,100510.28
2019-03-05T10:54:34.978Z,100512.59
2019-03-05T10:57:05.091Z,100505.86
2019-03-05T10:59:44.112Z,100494.72
2019-03-05T11:02:17.692Z,100495.23
2019-03-05T11:04:48.005Z,100509.19
2019-03-05T11:07:20.961Z,100500.75
2019-03-05T11:09:55.656Z,100498.00
2019-03-05T11:12:25.703Z,100497.41
2019-03-05T11:14:58.659Z,100494.50
2019-03-05T11:17:28.834Z,100495.47
2019-03-05T11:20:07.750Z,100503.37
2019-03-05T11:22:41.093Z,100498.37
2019-03-05T11:25:11.547Z,100496.08
2019-03-05T11:27:41.352Z,100495.38
2019-03-05T11:30:17.244Z,100490.50
2019-03-05T11:32:51.453Z,100504.33
2019-03-05T11:35:30.748Z,100495.52
2019-03-05T11:38:05.585Z,100495.84
2019-03-05T11:40:36.531Z,100489.57
2019-03-05T11:43:17.332Z,100495.53
2019-03-05T11:46:06.170Z,100489.41
2019-03-05T11:48:35.520Z,100497.44
2019-03-05T11:51:04.970Z,100491.16
2019-03-05T11:53:34.329Z,100498.17
2019-03-05T11:56:03.672Z,100499.16
2019-03-05T11:58:36.224Z,100498.84
2019-03-05T12:01:35.582Z,100520.20
2019-03-05T12:04:08.272Z,100491.91
2019-03-05T12:06:37.618Z,100490.05
2019-03-05T12:09:08.093Z,100484.78
2019-03-05T12:11:37.450Z,100481.00
2019-03-05T12:14:06.797Z,100482.73
2019-03-05T12:16:36.118Z,100482.76
2019-03-05T12:19:05.502Z,100466.05
2019-03-05T12:21:34.891Z,100464.48
2019-03-05T12:24:04.201Z,100472.52
2019-03-05T12:26:33.579Z,100469.81
2019-03-05T12:29:02.915Z,100472.71
2019-03-05T12:31:32.320Z,100464.98
2019-03-05T12:34:01.791Z,100473.27
2019-03-05T12:36:31.092Z,100474.64
2019-03-05T12:39:00.435Z,100470.20
2019-03-05T12:41:29.768Z,100458.47
2019-03-05T12:43:59.082Z,100453.55
2019-03-05T12:46:28.369Z,100456.45
2019-03-05T12:48:57.714Z,100453.28
2019-03-05T12:51:27.044Z,100444.61
2019-03-05T12:53:56.361Z,100448.81
2019-03-05T12:56:25.678Z,100447.34
2019-03-05T12:58:55.016Z,100454.25
2019-03-05T13:01:24.436Z,100446.03
2019-03-05T13:03:53.815Z,100440.47
2019-03-05T13:06:23.187Z,100437.86
2019-03-05T13:08:52.557Z,100435.25
2019-03-05T13:11:22.063Z,100441.84
2019-03-05T13:14:05.433Z,100436.55
2019-03-05T13:16:22.470Z,100430.56
2019-03-05T13:18:51.836Z,100430.20
2019-03-05T13:21:21.169Z,100423.52
2019-03-05T13:23:51.632Z,100418.66
2019-03-05T13:26:21.041Z,100411.29
2019-03-05T13:28:50.414Z,100407.09
2019-03-05T13:31:19.740Z,100400.75
2019-03-05T13:33:49.120Z,100397.33
2019-03-05T13:36:18.422Z,100393.41
2019-03-05T13:38:50.467Z,100387.36
2019-03-05T13:41:19.855Z,100386.97
2019-03-05T13:43:52.097Z,100386.05
2019-03-05T13:46:21.982Z,100387.42
2019-03-05T13:49:21.658Z,100389.67
2019-03-05T13:52:21.403Z,100385.94
2019-03-05T13:55:16.730Z,100387.87
2019-03-05T13:58:42.205Z,100382.08
2019-03-05T14:01:12.964Z,100380.59
2019-03-05T14:04:07.451Z,100378.61
2019-03-05T14:07:13.833Z,100377.08
2019-03-05T14:09:41.600Z,100375.20
2019-03-05T14:12:10.901Z,100369.25
2019-03-05T14:14:40.289Z,100368.79
2019-03-05T14:17:29.264Z,100360.13
2019-03-05T14:19:58.712Z,100364.95
2019-03-05T14:22:28.011Z,100364.66
2019-03-05T14:25:02.037Z,100363.07
2019-03-05T14:27:28.432Z,100360.92
2019-03-05T14:29:57.784Z,100356.66
2019-03-05T14:32:27.154Z,100360.92
2019-03-05T14:35:02.036Z,100360.62
2019-03-05T14:37:32.948Z,100363.69
2019-03-05T14:40:22.798Z,100360.27
2019-03-05T14:42:34.470Z,100357.73
2019-03-05T14:45:04.382Z,100354.77
2019-03-05T14:47:33.798Z,100352.17
2019-03-05T14:50:03.076Z,100352.63
2019-03-05T14:52:32.424Z,100351.39
2019-03-05T14:55:01.879Z,100348.04
2019-03-05T14:57:31.351Z,100346.34
2019-03-05T15:00:00.926Z,100346.91
2019-03-05T15:02:30.272Z,100337.95
2019-03-05T15:04:59.769Z,100341.11
2019-03-05T15:07:29.228Z,100331.70
2019-03-05T15:09:58.671Z,100328.81
2019-03-05T15:12:28.022Z,100325.53
2019-03-05T15:14:57.374Z,100323.94
2019-03-05T15:17:26.688Z,100320.94
2019-03-05T15:19:56.008Z,100323.74
2019-03-05T15:22:25.394Z,100319.52
2019-03-05T15:24:57.733Z,100319.22
2019-03-05T15:27:27.180Z,100315.03
2019-03-05T15:29:56.511Z,100303.02
2019-03-05T15:32:25.835Z,100311.00
2019-03-05T15:34:55.220Z,100306.31
2019-03-05T15:37:24.591Z,100302.96
2019-03-05T15:39:54.005Z,100301.36
2019-03-05T15:42:23.319Z,100301.44
2019-03-05T15:44:52.647Z,100297.63
2019-03-05T15:47:22.022Z,100298.47
2019-03-05T15:49:51.358Z,100298.08
2019-03-05T15:52:20.715Z,100286.92
2019-03-05T15:54:50.019Z,100287.48
2019-03-05T15:57:26.030Z,100281.88
2019-03-05T15:59:50.444Z,100279.73
2019-03-05T16:02:19.931Z,100279.83
2019-03-05T16:04:49.242Z,100271.24
2019-03-05T16:07:18.675Z,100272.55
2019-03-05T16:09:48.024Z,100268.28
2019-03-05T16:12:17.338Z,100267.89
2019-03-05T16:14:47.577Z,100262.33
2019-03-05T16:17:18.644Z,100252.83
2019-03-05T16:19:49.080Z,100247.23
2019-03-05T16:22:19.357Z,100241.67
2019-03-05T16:24:48.822Z,100239.98
2019-03-05T16:27:18.142Z,100240.89
2019-03-05T16:29:47.520Z,100232.27
2019-03-05T16:32:26.893Z,100225.84
2019-03-05T16:35:23.596Z,100218.94
2019-03-05T16:38:08.157Z,100223.33
2019-03-05T16:40:55.169Z,100218.66
2019-03-05T16:43:31.474Z,100221.73
2019-03-05T16:46:18.644Z,100219.14
2019-03-05T16:48:54.976Z,100217.84
2019-03-05T16:51:43.315Z,100203.23
2019-03-05T16:54:24.378Z,100198.48
2019-03-05T16:57:04.484Z,100196.80
2019-03-05T16:59:55.145Z,100190.30
2019-03-05T17:02:53.519Z,100185.09
2019-03-05T17:05:55.761Z,100181.64
2019-03-05T17:08:39.222Z,100172.99
2019-03-05T17:11:30.349Z,100167.43
2019-03-05T17:13:59.896Z,100174.39
2019-03-05T17:16:29.209Z,100171.41
2019-03-05T17:18:58.656Z,100166.69
2019-03-05T17:21:28.153Z,100164.09
2019-03-05T17:23:57.624Z,100164.09
2019-03-05T17:26:26.961Z,100166.20
2019-03-05T17:28:56.464Z,100167.98
2019-03-05T17:31:25.909Z,100161.09
2019-03-05T17:33:55.334Z,100163.31
2019-03-05T17:36:24.996Z,100158.11
2019-03-05T17:38:54.629Z,100152.55
2019-03-05T17:41:23.990Z,100151.31
2019-03-05T17:43:53.368Z,100149.27
2019-03-05T17:46:22.691Z,100146.27
2019-03-05T17:48:52.062Z,100143.77
2019-03-05T17:51:21.372Z,100135.22
2019-03-05T17:53:50.745Z,100128.79
2019-03-05T17:56:20.143Z,100128.89
2019-03-05T17:58:49.503Z,100116.89
2019-03-05T18:01:18.873Z,100113.06
2019-03-05T18:03:48.202Z,100102.76
2019-03-05T18:06:26.842Z,100098.56
2019-03-05T18:08:56.191Z,100102.47
2019-03-05T18:11:25.761Z,100096.03
2019-03-05T18:13:55.072Z,100093.53
2019-03-05T18:16:24.591Z,100085.90
2019-03-05T18:18:53.907Z,100084.59
2019-03-05T18:21:23.279Z,100069.91
2019-03-05T18:23:54.043Z,100064.35
2019-03-05T18:26:23.474Z,100062.66
2019-03-05T18:28:52.925Z,100056.72
2019-03-05T18:31:22.345Z,100054.19
2019-03-05T18:33:51.861Z,100048.62
2019-03-05T18:36:21.612Z,100037.94
2019-03-05T18:38:51.027Z,100034.50
2019-03-05T18:41:20.541Z,100018.61
2019-03-05T18:43:49.906Z,100010.07
2019-03-05T18:46:19.292Z,100014.04
2019-03-05T18:48:48.740Z,100010.23
2019-03-05T18:51:18.181Z,100003.91
2019-03-05T18:53:47.493Z,99993.97
2019-03-05T18:56:16.801Z,99993.22
2019-03-05T18:58:46.161Z,99978.25
2019-03-05T19:01:15.529Z,99973.52
2019-03-05T19:03:44.954Z,99963.28
2019-03-05T19:06:14.343Z,99958.19
2019-03-05T19:08:43.661Z,99950.95
2019-03-05T19:11:13.082Z,99940.62
2019-03-05T19:13:42.441Z,99931.23
2019-03-05T19:16:11.939Z,99924.36
2019-03-05T19:18:41.391Z,99922.87
2019-03-05T19:21:11.059Z,99915.14
2019-03-05T19:23:40.716Z,99911.34
2019-03-05T19:26:11.972Z,99897.16
2019-03-05T19:28:41.415Z,99890.73
2019-03-05T19:31:10.831Z,99887.39
2019-03-05T19:33:40.388Z,99881.81
2019-03-05T19:36:09.781Z,99873.66
2019-03-05T19:38:39.092Z,99869.27
2019-03-05T19:41:08.648Z,99864.57
2019-03-05T19:43:37.958Z,99859.83
2019-03-05T19:46:07.312Z,99852.03
2019-03-05T19:48:37.142Z,99848.98
2019-03-05T19:51:06.509Z,99844.59
2019-03-05T19:53:35.891Z,99831.99
2019-03-05T19:56:05.286Z,99832.83
2019-03-05T19:58:34.849Z,99824.94
2019-03-05T20:01:10.140Z,99821.88
2019-03-05T20:03:39.478Z,99825.22
2019-03-05T20:06:08.812Z,99828.20
2019-03-05T20:08:40.191Z,99810.02
2019-03-05T20:11:09.207Z,99803.91
2019-03-05T20:13:39.097Z,99794.33
2019-03-05T20:16:08.961Z,99790.36
2019-03-05T20:18:38.344Z,99787.20
2019-03-05T20:21:08.051Z,99778.03
2019-03-05T20:23:37.366Z,99767.64
2019-03-05T20:26:06.696Z,99762.34
2019-03-05T20:28:36.049Z,99752.33
2019-03-05T20:31:05.608Z,99756.12
2019-03-05T20:33:35.110Z,99754.36
2019-03-05T20:36:04.536Z,99741.75
2019-03-05T20:38:33.864Z,99738.94
2019-03-05T20:41:03.202Z,99742.30
2019-03-05T20:43:32.503Z,99717.89
2019-03-05T20:46:06.747Z,99733.59
2019-03-05T20:48:36.065Z,99736.00
2019-03-05T20:51:05.366Z,99734.87
2019-03-05T20:53:34.713Z,99712.98
2019-03-05T20:56:04.037Z,99718.34
2019-03-05T20:58:33.358Z,99710.36
2019-03-05T21:01:03.564Z,99713.61
2019-03-05T21:03:32.883Z,99703.11
2019-03-05T21:06:02.219Z,99691.59
2019-03-05T21:08:31.556Z,99707.55
2019-03-05T21:11:00.867Z,99698.38
2019-03-05T21:13:30.221Z,99706.06
2019-03-05T21:15:59.559Z,99699.03
2019-03-05T21:18:28.863Z,99701.06
2019-03-05T21:20:58.204Z,99701.41
2019-03-05T21:23:27.533Z,99699.46
2019-03-05T21:25:56.907Z,99693.80
2019-03-05T21:28:26.261Z,99698.08
2019-03-05T21:30:55.579Z,99702.45
2019-03-05T21:33:25.087Z,99690.28
2019-03-05T21:35:54.413Z,99685.89
2019-03-05T21:38:23.747Z,99685.42
2019-03-05T21:40:53.083Z,99686.73
2019-03-05T21:43:22.412Z,99673.72
2019-03-05T21:45:52.210Z,99673.72
2019-03-05T21:48:21.579Z,99653.87
2019-03-05T21:50:50.889Z,99672.99
2019-03-05T21:53:20.220Z,99665.57
2019-03-05T21:55:49.552Z,99656.93
2019-03-05T21:58:19.389Z,99645.69
2019-03-05T22:00:48.691Z,99644.38
2019-03-05T22:03:18.016Z,99640.56
2019-03-05T22:05:47.315Z,99647.91
2019-03-05T22:08:16.690Z,99651.34
2019-03-05T22:10:47.442Z,99630.54
2019-03-05T22:13:16.750Z,99641.41
2019-03-05T22:15:46.211Z,99625.45
2019-03-05T22:18:15.517Z,99622.85
2019-03-05T22:20:45.110Z,99625.45
2019-03-05T22:23:14.456Z,99609.84
2019-03-05T22:25:43.808Z,99612.45
2019-03-05T22:28:13.140Z,99612.06
2019-03-05T22:30:42.441Z,99596.46
2019-03-05T22:33:11.956Z,99601.66
2019-03-05T22:35:41.325Z,99604.73
2019-03-05T22:38:10.669Z,99584.77
2019-03-05T22:40:40.030Z,99580.48
2019-03-05T22:43:09.367Z,99577.88
2019-03-05T22:45:38.710Z,99574.93
2019-03-05T22:48:08.023Z,99577.15
2019-03-05T22:50:37.358Z,99558.11
2019-03-05T22:53:06.665Z,99554.13
2019-03-05T22:55:36.013Z,99544.64
2019-03-05T22:58:05.345Z,99549.50
2019-03-05T23:01:10.888Z,99537.80
2019-03-05T23:03:43.675Z,99542.16
2019-03-05T23:06:13.211Z,99540.94
2019-03-05T23:08:42.564Z,99543.54
2019-03-05T23:11:11.893Z,99526.30
2019-03-05T23:13:41.794Z,99521.09
2019-03-05T23:16:11.210Z,99529.35
2019-03-05T23:18:40.567Z,99521.55
2019-03-05T23:21:10.842Z,99518.11
2019-03-05T23:23:40.197Z,99504.73
2019-03-05T23:26:09.684Z,99492.57
2019-03-05T23:28:39.110Z,99499.07
2019-03-05T23:31:09.897Z,99488.78
2019-03-05T23:33:41.518Z,99497.42
2019-03-05T23:36:10.856Z,99493.03
2019-03-05T23:38:40.218Z,99491.73
2019-03-05T23:41:09.549Z,99480.98
2019-03-05T23:43:38.857Z,99481.91
2019-03-05T23:46:08.309Z,99493.61
2019-03-05T23:48:37.640Z,99484.89
2019-03-05T23:51:06.988Z,99475.33
2019-03-05T23:53:36.513Z,99459.23
2019-03-05T23:56:05.811Z,99441.98
2019-03-05T23:58:35.146Z,99424.62
